Terminal Aerodrome Forecast
Issued by NWS Paducah, KY

Home | Current Version | Previous Version | Text Only | Print | Product List | Glossary On
Versions: 1 2 3 4 5 6 7 8 9 10 11 12 13 14 15 16 17 18 19 20 21 22
000
FTUS43 KPAH 280525
TAFPAH
TAF
KPAH 280525Z 2806/2906 22006KT P6SM BKN060 BKN250
     FM280900 00000KT 6SM BR SCT013 BKN035 OVC090
     FM281100 36004KT 5SM BR BKN008 OVC030
     FM281500 36008KT P6SM SCT017 BKN030
     FM281900 36008G14KT P6SM BKN035
     FM290100 01006KT P6SM FEW045=

USA.gov is the U.S. government's official web portal to all federal, state and local government web resources and services.